createdAt,value
2022-09-22T00:01:42.739Z,17.11
2022-09-22T00:04:13.091Z,17.18
2022-09-22T00:06:43.513Z,17.11
2022-09-22T00:09:12.363Z,17.16
2022-09-22T00:11:42.514Z,17.14
2022-09-22T00:14:13.365Z,17.13
2022-09-22T00:16:44.990Z,17.11
2022-09-22T00:19:14.193Z,17.08
2022-09-22T00:21:42.193Z,17.01
2022-09-22T00:24:10.277Z,17.01
2022-09-22T00:26:38.500Z,16.94
2022-09-22T00:29:08.065Z,16.90
2022-09-22T00:31:36.765Z,16.68
2022-09-22T00:34:06.306Z,16.86
2022-09-22T00:36:34.285Z,16.83
2022-09-22T00:39:02.355Z,16.82
2022-09-22T00:41:32.393Z,16.82
2022-09-22T00:44:36.565Z,16.82
2022-09-22T00:47:13.378Z,16.76
2022-09-22T00:49:46.189Z,16.77
2022-09-22T00:52:15.382Z,16.73
2022-09-22T00:54:43.390Z,16.74
2022-09-22T00:57:15.256Z,16.77
2022-09-22T00:59:43.330Z,16.74
2022-09-22T01:02:11.541Z,16.87
2022-09-22T01:04:39.750Z,16.95
2022-09-22T01:07:09.529Z,17.04
2022-09-22T01:09:37.600Z,17.14
2022-09-22T01:12:05.713Z,17.23
2022-09-22T01:14:41.073Z,17.28
2022-09-22T01:17:11.295Z,17.25
2022-09-22T01:20:15.243Z,17.33
2022-09-22T01:23:24.243Z,17.44
2022-09-22T01:26:20.160Z,17.45
2022-09-22T01:29:01.343Z,17.32
2022-09-22T01:31:32.525Z,17.39
2022-09-22T01:34:04.440Z,17.46
2022-09-22T01:36:36.010Z,17.49
2022-09-22T01:39:07.197Z,17.49
2022-09-22T01:41:46.599Z,17.51
2022-09-22T01:44:17.657Z,17.49
2022-09-22T01:46:53.272Z,17.41
2022-09-22T01:49:21.355Z,17.51
2022-09-22T01:51:50.443Z,17.39
2022-09-22T01:54:19.772Z,17.48
2022-09-22T01:56:49.512Z,17.47
2022-09-22T01:59:17.814Z,17.47
2022-09-22T02:01:47.226Z,17.44
2022-09-22T02:04:18.224Z,17.43
2022-09-22T02:06:48.459Z,17.42
2022-09-22T02:09:17.754Z,17.45
2022-09-22T02:11:45.771Z,17.44
2022-09-22T02:14:13.799Z,17.45
2022-09-22T02:16:41.967Z,17.36
2022-09-22T02:19:13.365Z,17.41
2022-09-22T02:21:44.716Z,17.42
2022-09-22T02:24:30.811Z,17.45
2022-09-22T02:26:59.131Z,17.43
2022-09-22T02:29:27.749Z,17.42
2022-09-22T02:31:55.869Z,17.21
2022-09-22T02:34:23.918Z,17.10
2022-09-22T02:36:57.800Z,17.04
2022-09-22T02:39:28.431Z,16.99
2022-09-22T02:42:05.182Z,16.97
2022-09-22T02:44:35.799Z,16.96
2022-09-22T02:47:05.119Z,16.95
2022-09-22T02:49:33.177Z,16.92
2022-09-22T02:52:02.950Z,16.88
2022-09-22T02:54:30.948Z,16.89
2022-09-22T02:56:58.940Z,16.86
2022-09-22T02:59:27.026Z,16.85
2022-09-22T03:01:55.885Z,16.87
2022-09-22T03:04:24.121Z,16.81
2022-09-22T03:06:52.264Z,16.76
2022-09-22T03:09:21.715Z,16.82
2022-09-22T03:11:49.848Z,16.81
2022-09-22T03:14:17.877Z,16.77
2022-09-22T03:16:45.941Z,16.65
2022-09-22T03:19:13.959Z,16.69
2022-09-22T03:21:42.033Z,16.65
2022-09-22T03:24:10.094Z,16.61
2022-09-22T03:26:39.603Z,16.61
2022-09-22T03:29:07.578Z,16.58
2022-09-22T03:31:35.703Z,16.59
2022-09-22T03:34:03.690Z,16.59
2022-09-22T03:36:31.689Z,16.47
2022-09-22T03:39:00.220Z,16.55
2022-09-22T03:41:28.385Z,16.53
2022-09-22T03:43:58.242Z,16.49
2022-09-22T03:46:27.113Z,16.42
2022-09-22T03:48:55.316Z,16.37
2022-09-22T03:51:23.347Z,16.32
2022-09-22T03:53:51.472Z,16.25
2022-09-22T03:56:19.530Z,16.28
2022-09-22T03:58:47.976Z,16.28
2022-09-22T04:01:17.479Z,16.23
2022-09-22T04:03:45.545Z,16.24
2022-09-22T04:06:13.571Z,16.14
2022-09-22T04:08:41.749Z,16.18
2022-09-22T04:11:09.815Z,16.14
2022-09-22T04:13:38.955Z,16.12
2022-09-22T04:16:08.723Z,16.14
2022-09-22T04:18:40.239Z,16.14
2022-09-22T04:21:08.647Z,16.08
2022-09-22T04:23:36.817Z,16.10
2022-09-22T04:26:05.033Z,16.15
2022-09-22T04:28:33.249Z,16.09
2022-09-22T04:31:01.278Z,16.09
2022-09-22T04:33:29.561Z,16.07
2022-09-22T04:35:58.947Z,16.10
2022-09-22T04:38:27.207Z,16.08
2022-09-22T04:40:55.189Z,16.06
2022-09-22T04:43:23.259Z,16.04
2022-09-22T04:45:51.505Z,16.04
2022-09-22T04:48:20.200Z,16.00
2022-09-22T04:50:48.478Z,16.04
2022-09-22T04:53:17.934Z,16.08
2022-09-22T04:55:46.176Z,16.06
2022-09-22T04:58:14.253Z,16.01
2022-09-22T05:00:42.291Z,16.06
2022-09-22T05:03:10.459Z,16.07
2022-09-22T05:05:38.784Z,16.08
2022-09-22T05:08:07.849Z,16.08
2022-09-22T05:10:37.319Z,16.07
2022-09-22T05:13:05.976Z,16.10
2022-09-22T05:15:34.819Z,16.12
2022-09-22T05:18:03.008Z,16.16
2022-09-22T05:20:31.092Z,16.05
2022-09-22T05:22:59.121Z,16.16
2022-09-22T05:25:27.229Z,16.14
2022-09-22T05:27:57.046Z,16.09
2022-09-22T05:30:26.269Z,16.06
2022-09-22T05:32:54.344Z,16.05
2022-09-22T05:35:23.940Z,15.95
2022-09-22T05:37:52.550Z,16.04
2022-09-22T05:40:20.816Z,16.04
2022-09-22T05:42:49.785Z,16.07
2022-09-22T05:45:19.361Z,16.04
2022-09-22T05:47:47.419Z,16.15
2022-09-22T05:50:16.208Z,16.25
2022-09-22T05:52:44.594Z,16.38
2022-09-22T05:55:12.815Z,16.46
2022-09-22T05:57:40.864Z,16.54
2022-09-22T06:00:09.905Z,16.64
2022-09-22T06:02:42.301Z,16.62
2022-09-22T06:05:10.688Z,16.70
2022-09-22T06:07:38.760Z,16.73
2022-09-22T06:10:08.124Z,16.78
2022-09-22T06:12:36.194Z,16.78
2022-09-22T06:15:04.441Z,16.65
2022-09-22T06:17:32.504Z,16.77
2022-09-22T06:20:02.300Z,16.81
2022-09-22T06:22:30.703Z,16.79
2022-09-22T06:24:58.813Z,16.73
2022-09-22T06:27:26.871Z,16.81
2022-09-22T06:29:55.153Z,16.78
2022-09-22T06:32:23.602Z,16.81
2022-09-22T06:34:51.724Z,16.82
2022-09-22T06:37:21.213Z,16.78
2022-09-22T06:39:49.219Z,16.83
2022-09-22T06:42:17.671Z,16.81
2022-09-22T06:44:46.091Z,16.81
2022-09-22T06:47:14.155Z,16.74
2022-09-22T06:49:42.875Z,16.80
2022-09-22T06:52:12.689Z,16.82
2022-09-22T06:54:43.034Z,16.82
2022-09-22T06:57:12.120Z,16.88
2022-09-22T06:59:41.302Z,16.93
2022-09-22T07:02:10.767Z,17.02
2022-09-22T07:04:38.932Z,17.10
2022-09-22T07:07:07.074Z,17.14
2022-09-22T07:09:35.163Z,17.20
2022-09-22T07:12:06.245Z,17.30
2022-09-22T07:14:34.670Z,17.37
2022-09-22T07:17:02.775Z,17.41
2022-09-22T07:19:36.227Z,17.50
2022-09-22T07:22:04.449Z,17.56
2022-09-22T07:24:32.632Z,17.58
2022-09-22T07:27:05.019Z,17.71
2022-09-22T07:29:34.464Z,17.76
2022-09-22T07:32:03.957Z,17.82
2022-09-22T07:34:32.467Z,17.89
2022-09-22T07:37:00.936Z,17.95
2022-09-22T07:39:29.073Z,18.03
2022-09-22T07:41:57.335Z,18.13
2022-09-22T07:44:44.672Z,18.20
2022-09-22T07:47:14.506Z,18.32
2022-09-22T07:49:43.041Z,18.42
2022-09-22T07:52:11.107Z,18.33
2022-09-22T07:54:39.920Z,18.53
2022-09-22T07:57:11.059Z,18.67
2022-09-22T07:59:39.734Z,18.64
2022-09-22T08:02:08.247Z,18.75
2022-09-22T08:04:37.912Z,18.73
2022-09-22T08:07:06.249Z,18.76
2022-09-22T08:09:34.316Z,18.79
2022-09-22T08:12:02.714Z,18.65
2022-09-22T08:14:31.119Z,18.77
2022-09-22T08:16:59.198Z,18.79
2022-09-22T08:19:27.345Z,18.87
2022-09-22T08:21:57.797Z,19.03
2022-09-22T08:24:25.990Z,19.09
2022-09-22T08:26:56.278Z,19.19
2022-09-22T08:29:24.983Z,19.26
2022-09-22T08:31:54.043Z,19.33
2022-09-22T08:34:22.561Z,19.38
2022-09-22T08:36:50.692Z,19.42
2022-09-22T08:39:20.547Z,19.46
2022-09-22T08:41:57.302Z,19.55
2022-09-22T08:44:26.190Z,19.64
2022-09-22T08:46:54.508Z,19.70
2022-09-22T08:49:43.653Z,19.72
2022-09-22T08:52:16.874Z,19.85
2022-09-22T08:54:46.346Z,19.92
2022-09-22T08:57:24.799Z,20.11
2022-09-22T08:59:54.482Z,20.22
2022-09-22T09:02:41.317Z,20.39
2022-09-22T09:05:48.692Z,20.48
2022-09-22T09:08:27.547Z,20.49
2022-09-22T09:10:58.339Z,20.65
2022-09-22T09:13:37.549Z,20.82
2022-09-22T09:16:15.899Z,20.93
2022-09-22T09:18:46.838Z,21.02
2022-09-22T09:21:15.856Z,21.11
2022-09-22T09:26:36.666Z,21.03
2022-09-22T09:29:07.176Z,21.20
2022-09-22T09:31:38.417Z,21.23
2022-09-22T09:34:07.935Z,21.36
2022-09-22T09:36:37.926Z,21.54
2022-09-22T09:39:12.462Z,21.60
2022-09-22T09:41:42.249Z,21.80
2022-09-22T09:44:13.879Z,21.75
2022-09-22T09:46:51.841Z,21.82
2022-09-22T09:49:22.491Z,21.92
2022-09-22T09:51:51.792Z,22.10
2022-09-22T09:54:20.481Z,22.09
2022-09-22T09:57:08.003Z,22.17
2022-09-22T09:59:53.942Z,22.19
2022-09-22T10:02:23.964Z,22.32
2022-09-22T10:04:53.213Z,22.38
2022-09-22T10:07:22.768Z,22.58
2022-09-22T10:09:51.815Z,22.82
2022-09-22T10:12:31.292Z,23.00
2022-09-22T10:15:03.462Z,23.18
2022-09-22T10:17:34.094Z,23.29
2022-09-22T10:20:18.118Z,23.37
2022-09-22T10:22:48.650Z,23.35
2022-09-22T10:25:23.372Z,23.32
2022-09-22T10:28:03.849Z,22.95
2022-09-22T10:30:37.516Z,23.04
2022-09-22T10:33:16.617Z,23.01
2022-09-22T10:35:45.787Z,22.92
2022-09-22T10:38:16.382Z,22.94
2022-09-22T10:40:46.119Z,23.03
2022-09-22T10:43:37.191Z,23.21
2022-09-22T10:46:21.296Z,23.30
2022-09-22T10:48:50.515Z,23.24
2022-09-22T10:51:22.882Z,23.12
2022-09-22T10:54:07.150Z,23.14
2022-09-22T10:56:35.809Z,23.11
2022-09-22T10:59:17.336Z,23.24
2022-09-22T11:01:52.540Z,23.40
2022-09-22T11:04:29.393Z,23.46
2022-09-22T11:07:26.700Z,23.63
2022-09-22T11:10:17.875Z,23.72
2022-09-22T11:12:49.870Z,23.82
2022-09-22T11:15:30.983Z,23.93
2022-09-22T11:18:23.517Z,24.08
2022-09-22T11:20:52.896Z,24.12
2022-09-22T11:23:40.401Z,23.99
2022-09-22T11:26:29.194Z,24.19
2022-09-22T11:29:10.749Z,24.29
2022-09-22T11:31:44.211Z,24.45
2022-09-22T11:34:33.081Z,24.49
2022-09-22T11:37:25.136Z,24.55
2022-09-22T11:40:09.220Z,24.69
2022-09-22T11:42:41.526Z,24.77
2022-09-22T11:45:15.384Z,24.79
2022-09-22T11:47:57.068Z,24.76
2022-09-22T11:50:44.197Z,24.83
2022-09-22T11:53:43.716Z,25.01
2022-09-22T11:56:21.566Z,25.03
2022-09-22T11:58:49.723Z,25.05
2022-09-22T12:01:20.679Z,25.17
2022-09-22T12:03:59.404Z,25.22
2022-09-22T12:06:30.372Z,25.12
2022-09-22T12:09:04.245Z,25.12
2022-09-22T12:11:35.853Z,25.19
2022-09-22T12:14:06.796Z,24.95
2022-09-22T12:16:47.206Z,24.87
2022-09-22T12:19:22.190Z,24.86
2022-09-22T12:21:54.254Z,24.98
2022-09-22T12:24:23.131Z,25.11
2022-09-22T12:26:51.427Z,24.89
2022-09-22T12:29:24.990Z,24.97
2022-09-22T12:31:55.740Z,24.83
2022-09-22T12:34:28.433Z,24.69
2022-09-22T12:36:59.527Z,24.57
2022-09-22T12:39:29.079Z,24.38
2022-09-22T12:41:58.342Z,24.23
2022-09-22T12:44:27.136Z,24.22
2022-09-22T12:47:02.483Z,24.13
2022-09-22T12:49:32.307Z,24.16
2022-09-22T12:52:00.410Z,24.03
2022-09-22T12:54:37.784Z,23.96
2022-09-22T12:57:24.567Z,23.91
2022-09-22T13:00:07.551Z,23.80
2022-09-22T13:02:44.844Z,23.72
2022-09-22T13:05:46.694Z,23.72
2022-09-22T13:08:23.653Z,23.62
2022-09-22T13:11:01.643Z,23.61
2022-09-22T13:13:37.934Z,23.56
2022-09-22T13:16:27.947Z,23.56
2022-09-22T13:19:00.140Z,23.43
2022-09-22T13:21:31.524Z,23.40
2022-09-22T13:24:00.803Z,23.25
2022-09-22T13:26:30.430Z,23.36
2022-09-22T13:29:12.212Z,23.27
2022-09-22T13:31:42.247Z,23.35
2022-09-22T13:34:29.737Z,23.41
2022-09-22T13:37:03.076Z,23.37
2022-09-22T13:39:33.304Z,23.45
2022-09-22T13:42:05.744Z,23.41
2022-09-22T13:44:35.657Z,23.50
2022-09-22T13:47:06.443Z,23.45
2022-09-22T13:49:37.401Z,23.44
2022-09-22T13:52:10.800Z,23.47
2022-09-22T13:54:38.946Z,23.48
2022-09-22T13:57:12.077Z,23.37
2022-09-22T13:59:42.713Z,23.46
2022-09-22T14:02:12.315Z,23.40
2022-09-22T14:04:49.385Z,23.39
2022-09-22T14:07:18.858Z,23.32
2022-09-22T14:09:47.460Z,23.17
2022-09-22T14:12:18.751Z,23.27
2022-09-22T14:14:47.237Z,23.32
2022-09-22T14:17:19.290Z,23.33
2022-09-22T14:19:49.564Z,23.43
2022-09-22T14:22:20.834Z,23.45
2022-09-22T14:24:50.080Z,23.55
2022-09-22T14:27:23.788Z,23.54
2022-09-22T14:29:53.170Z,23.45
2022-09-22T14:32:24.085Z,23.65
2022-09-22T14:34:53.143Z,23.68
2022-09-22T14:37:24.867Z,23.78
2022-09-22T14:39:53.116Z,23.83
2022-09-22T14:42:26.845Z,23.81
2022-09-22T14:45:07.745Z,23.88
2022-09-22T14:47:39.487Z,23.84
2022-09-22T14:50:19.203Z,23.78
2022-09-22T14:52:58.450Z,23.75
2022-09-22T14:55:32.447Z,23.90
2022-09-22T14:58:03.887Z,24.25
2022-09-22T15:00:49.391Z,24.47
2022-09-22T15:03:21.809Z,24.58
2022-09-22T15:05:50.890Z,24.51
2022-09-22T15:08:24.844Z,24.41
2022-09-22T15:10:53.494Z,24.28
2022-09-22T15:13:29.714Z,24.04
2022-09-22T15:15:58.158Z,24.13
2022-09-22T15:18:29.801Z,24.05
2022-09-22T15:20:59.850Z,23.93
2022-09-22T15:23:31.780Z,23.81
2022-09-22T15:26:05.017Z,23.69
2022-09-22T15:28:37.193Z,23.59
2022-09-22T15:31:05.705Z,23.55
2022-09-22T15:33:33.769Z,23.53
2022-09-22T15:36:02.877Z,23.51
2022-09-22T15:38:33.345Z,23.41
2022-09-22T15:41:02.002Z,23.48
2022-09-22T15:43:32.213Z,23.41
2022-09-22T15:46:01.340Z,23.36
2022-09-22T15:48:31.429Z,23.34
2022-09-22T15:51:01.125Z,23.25
2022-09-22T15:53:44.991Z,23.20
2022-09-22T15:56:19.565Z,23.21
2022-09-22T15:58:47.864Z,23.21
2022-09-22T16:01:17.498Z,23.18
2022-09-22T16:03:45.955Z,23.20
2022-09-22T16:06:15.653Z,23.15
2022-09-22T16:08:44.607Z,23.11
2022-09-22T16:11:15.689Z,23.01
2022-09-22T16:13:44.581Z,22.95
2022-09-22T16:16:12.718Z,22.88
2022-09-22T16:18:42.149Z,22.85
2022-09-22T16:21:18.727Z,22.76
2022-09-22T16:23:46.757Z,22.70
2022-09-22T16:26:16.214Z,22.63
2022-09-22T16:28:44.335Z,22.58
2022-09-22T16:31:13.580Z,22.49
2022-09-22T16:33:41.703Z,22.49
2022-09-22T16:36:10.169Z,22.49
2022-09-22T16:38:39.550Z,22.44
2022-09-22T16:41:08.377Z,22.25
2022-09-22T16:43:40.383Z,22.20
2022-09-22T16:46:26.956Z,22.07
2022-09-22T16:48:55.271Z,21.90
2022-09-22T16:51:23.370Z,21.78
2022-09-22T16:53:52.814Z,21.68
2022-09-22T16:56:21.032Z,21.68
2022-09-22T16:58:50.477Z,21.66
2022-09-22T17:01:20.100Z,21.66
2022-09-22T17:03:49.468Z,21.60
2022-09-22T17:06:18.829Z,21.51
2022-09-22T17:08:46.959Z,21.55
2022-09-22T17:11:15.189Z,21.46
2022-09-22T17:13:43.418Z,21.33
2022-09-22T17:16:22.023Z,21.33
2022-09-22T17:18:52.233Z,21.26
2022-09-22T17:21:21.945Z,21.24
2022-09-22T17:23:50.694Z,21.18
2022-09-22T17:26:19.024Z,21.20
2022-09-22T17:28:47.174Z,21.23
2022-09-22T17:31:15.349Z,21.21
2022-09-22T17:33:51.977Z,21.27
2022-09-22T17:36:23.942Z,21.28
2022-09-22T17:38:52.960Z,21.29
2022-09-22T17:41:21.846Z,21.37
2022-09-22T17:43:52.057Z,21.30
2022-09-22T17:46:20.590Z,21.41
2022-09-22T17:49:07.435Z,21.39
2022-09-22T17:51:53.834Z,21.34
2022-09-22T17:54:40.752Z,21.24
2022-09-22T17:57:09.330Z,21.23
2022-09-22T17:59:37.503Z,21.01
2022-09-22T18:02:08.587Z,20.92
2022-09-22T18:04:38.069Z,21.14
2022-09-22T18:07:07.065Z,21.16
2022-09-22T18:09:35.351Z,21.12
2022-09-22T18:12:03.568Z,21.14
2022-09-22T18:14:31.877Z,21.15
2022-09-22T18:17:00.134Z,21.18
2022-09-22T18:19:29.211Z,21.17
2022-09-22T18:21:58.820Z,21.08
2022-09-22T18:24:26.959Z,21.12
2022-09-22T18:26:55.206Z,21.09
2022-09-22T18:29:23.666Z,21.06
2022-09-22T18:31:53.190Z,21.05
2022-09-22T18:34:21.411Z,21.05
2022-09-22T18:36:51.612Z,21.08
2022-09-22T18:39:21.069Z,21.12
2022-09-22T18:41:49.851Z,21.16
2022-09-22T18:44:19.309Z,21.05
2022-09-22T18:46:48.503Z,21.03
2022-09-22T18:49:17.184Z,20.97
2022-09-22T18:51:49.093Z,20.97
2022-09-22T18:54:17.402Z,20.93
2022-09-22T18:56:47.816Z,20.90
2022-09-22T18:59:16.781Z,20.94
2022-09-22T19:01:44.976Z,20.93
2022-09-22T19:04:17.318Z,20.88
2022-09-22T19:07:03.223Z,20.87
2022-09-22T19:09:31.310Z,20.88
2022-09-22T19:12:01.320Z,20.91
2022-09-22T19:14:39.005Z,20.83
2022-09-22T19:17:07.344Z,20.87
2022-09-22T19:19:37.061Z,20.83
2022-09-22T19:22:09.119Z,20.79
2022-09-22T19:24:37.605Z,20.80
2022-09-22T19:27:08.593Z,20.74
2022-09-22T19:29:36.896Z,20.67
2022-09-22T19:32:06.518Z,20.69
2022-09-22T19:34:34.650Z,20.75
2022-09-22T19:37:02.714Z,20.75
2022-09-22T19:39:32.256Z,20.89
2022-09-22T19:42:00.454Z,20.90
2022-09-22T19:44:32.444Z,21.00
2022-09-22T19:47:00.681Z,21.01
2022-09-22T19:49:29.631Z,21.03
2022-09-22T19:51:57.686Z,20.91
2022-09-22T19:54:25.757Z,21.05
2022-09-22T19:56:53.879Z,21.04
2022-09-22T19:59:21.914Z,21.04
2022-09-22T20:01:51.642Z,20.99
2022-09-22T20:04:20.964Z,21.00
2022-09-22T20:06:49.107Z,20.98
2022-09-22T20:09:17.190Z,20.95
2022-09-22T20:11:46.474Z,20.92
2022-09-22T20:14:22.157Z,20.96
2022-09-22T20:16:52.740Z,20.92
2022-09-22T20:19:21.078Z,21.03
2022-09-22T20:21:49.745Z,21.05
2022-09-22T20:24:19.721Z,21.03
2022-09-22T20:26:47.894Z,20.92
2022-09-22T20:29:16.697Z,20.90
2022-09-22T20:31:44.810Z,20.93
2022-09-22T20:34:15.552Z,20.93
2022-09-22T20:36:46.853Z,20.95
2022-09-22T20:39:15.289Z,21.02
2022-09-22T20:41:43.893Z,20.98
2022-09-22T20:44:14.036Z,20.94
2022-09-22T20:46:42.756Z,20.98
2022-09-22T20:49:14.664Z,21.00
2022-09-22T20:51:42.967Z,20.84
2022-09-22T20:54:11.018Z,20.99
2022-09-22T20:56:42.601Z,20.92
2022-09-22T20:59:11.289Z,20.98
2022-09-22T21:01:39.397Z,21.01
2022-09-22T21:04:07.881Z,20.94
2022-09-22T21:06:37.845Z,20.93
2022-09-22T21:09:23.454Z,20.95
2022-09-22T21:11:51.968Z,20.94
2022-09-22T21:14:20.370Z,20.97
2022-09-22T21:16:49.574Z,20.96
2022-09-22T21:19:17.632Z,20.95
2022-09-22T21:21:47.091Z,21.03
2022-09-22T21:24:15.370Z,21.02
2022-09-22T21:26:43.813Z,21.00
2022-09-22T21:29:11.946Z,21.09
2022-09-22T21:31:40.022Z,21.05
2022-09-22T21:34:08.052Z,21.10
2022-09-22T21:36:36.320Z,21.16
2022-09-22T21:39:05.788Z,21.20
2022-09-22T21:41:33.853Z,21.23
2022-09-22T21:44:02.957Z,21.28
2022-09-22T21:46:31.244Z,21.28
2022-09-22T21:49:01.684Z,21.25
2022-09-22T21:51:30.526Z,21.25
2022-09-22T21:53:58.519Z,21.26
2022-09-22T21:56:30.121Z,21.26
2022-09-22T21:58:58.642Z,21.30
2022-09-22T22:01:27.366Z,21.34
2022-09-22T22:03:57.239Z,21.31
2022-09-22T22:06:26.272Z,21.37
2022-09-22T22:09:01.237Z,21.30
2022-09-22T22:11:33.643Z,21.25
2022-09-22T22:14:02.591Z,21.31
2022-09-22T22:16:31.814Z,21.21
2022-09-22T22:18:59.967Z,21.35
2022-09-22T22:21:29.200Z,21.32
2022-09-22T22:24:14.091Z,21.39
2022-09-22T22:26:43.795Z,21.25
2022-09-22T22:29:13.145Z,21.39
2022-09-22T22:31:41.310Z,21.42
2022-09-22T22:34:10.079Z,21.38
2022-09-22T22:36:38.238Z,21.32
2022-09-22T22:39:06.456Z,21.35
2022-09-22T22:41:34.507Z,21.36
2022-09-22T22:44:04.137Z,21.40
2022-09-22T22:46:32.198Z,21.42
2022-09-22T22:49:00.250Z,21.42
2022-09-22T22:51:28.341Z,21.45
2022-09-22T22:53:56.763Z,21.45
2022-09-22T22:56:25.607Z,21.42
2022-09-22T22:58:53.806Z,21.40
2022-09-22T23:01:23.942Z,21.28
2022-09-22T23:03:53.341Z,21.26
2022-09-22T23:06:22.246Z,21.27
2022-09-22T23:08:50.369Z,21.21
2022-09-22T23:11:19.386Z,21.25
2022-09-22T23:13:50.917Z,21.29
2022-09-22T23:16:19.866Z,21.28
2022-09-22T23:18:49.371Z,21.27
2022-09-22T23:21:19.031Z,21.28
2022-09-22T23:23:47.275Z,21.25
2022-09-22T23:26:15.710Z,21.25
2022-09-22T23:28:44.077Z,21.19
2022-09-22T23:31:12.933Z,21.03
2022-09-22T23:33:42.590Z,21.15
2022-09-22T23:36:13.301Z,21.15
2022-09-22T23:38:41.550Z,21.13
2022-09-22T23:41:10.367Z,21.11
2022-09-22T23:43:38.377Z,21.03
2022-09-22T23:46:07.739Z,21.01
2022-09-22T23:48:36.115Z,20.99
2022-09-22T23:51:04.470Z,20.97
2022-09-22T23:53:35.185Z,20.95
2022-09-22T23:56:03.566Z,20.88
2022-09-22T23:58:31.578Z,20.86
